sensor_id;sensor_type;location;lat;lon;timestamp;pressure;altitude;pressure_sealevel;temperature;humidity
63115;BME280;49208;50.874;6.466;2023-08-21T06:02:38;101128.63;;;18.15;100.00
63115;BME280;49208;50.874;6.466;2023-08-21T06:05:03;101122.66;;;18.26;100.00
63115;BME280;49208;50.874;6.466;2023-08-21T06:07:29;101129.16;;;18.38;100.00
63115;BME280;49208;50.874;6.466;2023-08-21T06:09:54;101136.03;;;18.60;100.00
63115;BME280;49208;50.874;6.466;2023-08-21T06:12:20;101122.91;;;19.00;100.00
63115;BME280;49208;50.874;6.466;2023-08-21T06:14:45;101133.41;;;19.63;100.00
63115;BME280;49208;50.874;6.466;2023-08-21T06:17:10;101137.41;;;20.42;100.00
63115;BME280;49208;50.874;6.466;2023-08-21T06:19:36;101138.63;;;21.18;100.00
63115;BME280;49208;50.874;6.466;2023-08-21T06:22:01;101139.22;;;21.74;100.00
63115;BME280;49208;50.874;6.466;2023-08-21T06:24:26;101144.78;;;22.10;95.62
63115;BME280;49208;50.874;6.466;2023-08-21T06:26:52;101146.72;;;22.33;93.43
63115;BME280;49208;50.874;6.466;2023-08-21T06:29:18;101142.16;;;22.34;91.94
63115;BME280;49208;50.874;6.466;2023-08-21T06:31:46;101146.84;;;22.32;91.19
63115;BME280;49208;50.874;6.466;2023-08-21T06:34:12;101156.06;;;22.29;90.74
63115;BME280;49208;50.874;6.466;2023-08-21T06:36:37;101151.50;;;22.30;89.61
63115;BME280;49208;50.874;6.466;2023-08-21T06:39:03;101152.13;;;22.70;88.21
63115;BME280;49208;50.874;6.466;2023-08-21T06:41:29;101148.31;;;23.55;84.39
63115;BME280;49208;50.874;6.466;2023-08-21T06:43:57;101156.97;;;24.62;79.87
63115;BME280;49208;50.874;6.466;2023-08-21T06:46:23;101153.91;;;25.61;72.82
63115;BME280;49208;50.874;6.466;2023-08-21T06:48:49;101149.66;;;26.50;66.50
63115;BME280;49208;50.874;6.466;2023-08-21T06:51:15;101139.22;;;27.33;64.22
63115;BME280;49208;50.874;6.466;2023-08-21T06:53:41;101149.59;;;28.14;62.01
63115;BME280;49208;50.874;6.466;2023-08-21T06:56:06;101157.41;;;28.82;58.70
63115;BME280;49208;50.874;6.466;2023-08-21T06:58:32;101151.47;;;29.49;55.94
63115;BME280;49208;50.874;6.466;2023-08-21T07:00:59;101151.63;;;29.91;53.28
63115;BME280;49208;50.874;6.466;2023-08-21T07:03:24;101149.00;;;30.24;52.57
63115;BME280;49208;50.874;6.466;2023-08-21T07:05:54;101143.94;;;30.46;51.30
63115;BME280;49208;50.874;6.466;2023-08-21T07:08:20;101147.66;;;31.04;49.35
63115;BME280;49208;50.874;6.466;2023-08-21T07:10:45;101142.00;;;31.30;47.61
63115;BME280;49208;50.874;6.466;2023-08-21T07:13:11;101138.72;;;31.51;47.66
63115;BME280;49208;50.874;6.466;2023-08-21T07:15:36;101135.56;;;31.78;47.23
63115;BME280;49208;50.874;6.466;2023-08-21T07:18:02;101148.91;;;32.06;46.88
63115;BME280;49208;50.874;6.466;2023-08-21T07:20:28;101143.38;;;32.06;45.76
63115;BME280;49208;50.874;6.466;2023-08-21T07:22:53;101148.56;;;32.09;45.36
63115;BME280;49208;50.874;6.466;2023-08-21T07:25:19;101152.34;;;32.39;44.19
63115;BME280;49208;50.874;6.466;2023-08-21T07:27:44;101153.28;;;32.63;43.92
63115;BME280;49208;50.874;6.466;2023-08-21T07:30:10;101165.50;;;32.69;43.45
63115;BME280;49208;50.874;6.466;2023-08-21T07:32:36;101162.97;;;32.82;44.68
63115;BME280;49208;50.874;6.466;2023-08-21T07:35:01;101163.66;;;32.84;43.73
63115;BME280;49208;50.874;6.466;2023-08-21T07:37:26;101154.94;;;32.95;43.45
63115;BME280;49208;50.874;6.466;2023-08-21T07:39:52;101160.78;;;32.46;43.44
63115;BME280;49208;50.874;6.466;2023-08-21T07:42:18;101162.06;;;32.67;42.87
63115;BME280;49208;50.874;6.466;2023-08-21T07:44:44;101164.16;;;32.88;44.41
63115;BME280;49208;50.874;6.466;2023-08-21T07:47:10;101161.81;;;32.99;42.41
63115;BME280;49208;50.874;6.466;2023-08-21T07:49:36;101161.06;;;33.29;42.85
63115;BME280;49208;50.874;6.466;2023-08-21T07:52:03;101164.31;;;33.32;42.62
63115;BME280;49208;50.874;6.466;2023-08-21T07:54:29;101157.81;;;33.48;40.98
63115;BME280;49208;50.874;6.466;2023-08-21T07:56:54;101158.97;;;33.31;41.87
63115;BME280;49208;50.874;6.466;2023-08-21T07:59:20;101149.88;;;33.45;42.41
63115;BME280;49208;50.874;6.466;2023-08-21T08:01:45;101157.56;;;33.73;41.06
63115;BME280;49208;50.874;6.466;2023-08-21T08:04:11;101160.78;;;33.76;41.38
63115;BME280;49208;50.874;6.466;2023-08-21T08:06:36;101159.56;;;33.64;41.91
63115;BME280;49208;50.874;6.466;2023-08-21T08:09:02;101161.47;;;33.64;41.61
63115;BME280;49208;50.874;6.466;2023-08-21T08:11:29;101154.06;;;33.64;40.37
63115;BME280;49208;50.874;6.466;2023-08-21T08:13:54;101158.47;;;33.50;42.38
63115;BME280;49208;50.874;6.466;2023-08-21T08:16:20;101156.22;;;33.31;42.66
63115;BME280;49208;50.874;6.466;2023-08-21T08:18:45;101161.03;;;33.14;42.70
63115;BME280;49208;50.874;6.466;2023-08-21T08:21:10;101164.63;;;32.91;43.18
63115;BME280;49208;50.874;6.466;2023-08-21T08:23:36;101159.91;;;32.46;44.08
63115;BME280;49208;50.874;6.466;2023-08-21T08:26:02;101155.09;;;32.08;45.01
63115;BME280;49208;50.874;6.466;2023-08-21T08:28:27;101149.97;;;31.89;45.69
63115;BME280;49208;50.874;6.466;2023-08-21T08:30:52;101142.97;;;31.70;46.60
63115;BME280;49208;50.874;6.466;2023-08-21T08:33:18;101147.66;;;31.20;47.37
63115;BME280;49208;50.874;6.466;2023-08-21T08:35:43;101151.63;;;31.09;48.38
63115;BME280;49208;50.874;6.466;2023-08-21T08:38:09;101142.09;;;30.71;49.48
63115;BME280;49208;50.874;6.466;2023-08-21T08:40:38;101147.06;;;30.51;50.26
63115;BME280;49208;50.874;6.466;2023-08-21T08:43:08;101148.38;;;30.30;52.22
63115;BME280;49208;50.874;6.466;2023-08-21T08:45:34;101148.38;;;29.96;52.13
63115;BME280;49208;50.874;6.466;2023-08-21T08:48:00;101156.63;;;29.70;52.77
63115;BME280;49208;50.874;6.466;2023-08-21T08:50:31;101151.81;;;29.46;52.02
63115;BME280;49208;50.874;6.466;2023-08-21T08:52:57;101155.69;;;29.35;55.20
63115;BME280;49208;50.874;6.466;2023-08-21T08:55:24;101161.00;;;29.36;55.44
63115;BME280;49208;50.874;6.466;2023-08-21T08:57:51;101154.22;;;29.23;57.40
63115;BME280;49208;50.874;6.466;2023-08-21T09:00:17;101154.28;;;29.31;56.32
63115;BME280;49208;50.874;6.466;2023-08-21T09:02:42;101161.25;;;29.25;56.61
63115;BME280;49208;50.874;6.466;2023-08-21T09:05:08;101162.31;;;29.24;55.21
63115;BME280;49208;50.874;6.466;2023-08-21T09:07:35;101166.47;;;29.10;54.62
63115;BME280;49208;50.874;6.466;2023-08-21T09:10:02;101171.44;;;28.97;54.72
63115;BME280;49208;50.874;6.466;2023-08-21T09:12:31;101159.53;;;28.88;57.93
63115;BME280;49208;50.874;6.466;2023-08-21T09:14:58;101162.75;;;28.84;56.57
63115;BME280;49208;50.874;6.466;2023-08-21T09:17:24;101162.28;;;28.70;56.16
63115;BME280;49208;50.874;6.466;2023-08-21T09:19:49;101156.91;;;28.78;57.39
63115;BME280;49208;50.874;6.466;2023-08-21T09:22:16;101153.69;;;28.83;56.75
63115;BME280;49208;50.874;6.466;2023-08-21T09:25:05;101157.66;;;28.89;56.18
63115;BME280;49208;50.874;6.466;2023-08-21T09:27:38;101159.09;;;29.11;57.08
63115;BME280;49208;50.874;6.466;2023-08-21T09:30:04;101173.34;;;29.14;56.00
63115;BME280;49208;50.874;6.466;2023-08-21T09:32:30;101159.16;;;29.19;55.44
63115;BME280;49208;50.874;6.466;2023-08-21T09:34:56;101164.78;;;29.35;56.46
63115;BME280;49208;50.874;6.466;2023-08-21T09:37:27;101153.56;;;29.73;56.53
63115;BME280;49208;50.874;6.466;2023-08-21T09:39:54;101154.88;;;29.69;54.68
63115;BME280;49208;50.874;6.466;2023-08-21T09:42:25;101162.34;;;29.76;54.71
63115;BME280;49208;50.874;6.466;2023-08-21T09:44:51;101162.84;;;29.80;55.39
63115;BME280;49208;50.874;6.466;2023-08-21T09:47:17;101155.84;;;29.86;54.50
63115;BME280;49208;50.874;6.466;2023-08-21T09:49:43;101145.03;;;29.58;55.72
63115;BME280;49208;50.874;6.466;2023-08-21T09:52:08;101150.78;;;29.47;55.01
63115;BME280;49208;50.874;6.466;2023-08-21T09:54:38;101149.22;;;29.44;56.03
63115;BME280;49208;50.874;6.466;2023-08-21T09:57:03;101150.44;;;29.24;57.04
63115;BME280;49208;50.874;6.466;2023-08-21T09:59:32;101151.59;;;29.39;57.29
63115;BME280;49208;50.874;6.466;2023-08-21T10:02:01;101143.19;;;29.40;55.24
63115;BME280;49208;50.874;6.466;2023-08-21T10:04:28;101148.38;;;29.44;58.46
63115;BME280;49208;50.874;6.466;2023-08-21T10:06:57;101146.44;;;29.36;56.28
63115;BME280;49208;50.874;6.466;2023-08-21T10:09:24;101149.44;;;29.51;56.83
63115;BME280;49208;50.874;6.466;2023-08-21T10:11:52;101136.28;;;29.54;54.88
63115;BME280;49208;50.874;6.466;2023-08-21T10:14:18;101140.91;;;29.54;55.98
63115;BME280;49208;50.874;6.466;2023-08-21T10:16:44;101139.25;;;29.69;55.73
63115;BME280;49208;50.874;6.466;2023-08-21T10:19:14;101134.25;;;29.83;55.04
63115;BME280;49208;50.874;6.466;2023-08-21T10:21:39;101138.25;;;29.96;56.91
63115;BME280;49208;50.874;6.466;2023-08-21T10:24:05;101134.47;;;29.97;54.17
63115;BME280;49208;50.874;6.466;2023-08-21T10:26:30;101138.69;;;29.84;54.54
63115;BME280;49208;50.874;6.466;2023-08-21T10:29:00;101134.56;;;29.53;53.27
63115;BME280;49208;50.874;6.466;2023-08-21T10:31:31;101139.06;;;29.36;57.91
63115;BME280;49208;50.874;6.466;2023-08-21T10:33:59;101142.03;;;29.43;57.97
63115;BME280;49208;50.874;6.466;2023-08-21T10:36:39;101138.91;;;29.64;56.48
63115;BME280;49208;50.874;6.466;2023-08-21T10:39:23;101137.13;;;29.55;54.51
63115;BME280;49208;50.874;6.466;2023-08-21T10:41:55;101145.88;;;29.32;54.62
63115;BME280;49208;50.874;6.466;2023-08-21T10:49:55;101131.44;;;29.48;56.59
63115;BME280;49208;50.874;6.466;2023-08-21T10:52:23;101128.88;;;29.55;56.08
63115;BME280;49208;50.874;6.466;2023-08-21T10:54:54;101129.97;;;29.62;56.16
63115;BME280;49208;50.874;6.466;2023-08-21T10:57:22;101130.78;;;29.54;56.49
63115;BME280;49208;50.874;6.466;2023-08-21T11:00:03;101139.81;;;29.47;56.42
63115;BME280;49208;50.874;6.466;2023-08-21T11:02:35;101140.31;;;29.42;54.85
63115;BME280;49208;50.874;6.466;2023-08-21T11:05:02;101134.81;;;29.42;56.77
63115;BME280;49208;50.874;6.466;2023-08-21T11:07:28;101138.25;;;29.44;56.87
63115;BME280;49208;50.874;6.466;2023-08-21T11:09:55;101136.41;;;29.53;54.45
63115;BME280;49208;50.874;6.466;2023-08-21T11:12:22;101131.13;;;29.51;56.07
63115;BME280;49208;50.874;6.466;2023-08-21T11:14:48;101134.94;;;29.58;57.44
63115;BME280;49208;50.874;6.466;2023-08-21T11:17:14;101130.91;;;29.71;56.55
63115;BME280;49208;50.874;6.466;2023-08-21T11:19:41;101143.78;;;29.70;56.82
63115;BME280;49208;50.874;6.466;2023-08-21T11:22:07;101145.78;;;29.68;56.76
63115;BME280;49208;50.874;6.466;2023-08-21T11:27:05;101147.63;;;29.59;55.24
63115;BME280;49208;50.874;6.466;2023-08-21T11:32:10;101145.25;;;29.38;55.53
63115;BME280;49208;50.874;6.466;2023-08-21T11:34:36;101143.41;;;29.21;56.22
63115;BME280;49208;50.874;6.466;2023-08-21T11:37:01;101143.97;;;29.25;56.66
63115;BME280;49208;50.874;6.466;2023-08-21T11:39:38;101136.78;;;29.32;57.83
63115;BME280;49208;50.874;6.466;2023-08-21T11:42:08;101150.09;;;29.45;55.30
63115;BME280;49208;50.874;6.466;2023-08-21T11:44:40;101150.38;;;29.59;54.58
63115;BME280;49208;50.874;6.466;2023-08-21T11:47:05;101145.34;;;29.55;56.53
63115;BME280;49208;50.874;6.466;2023-08-21T11:49:30;101151.13;;;29.70;56.43
63115;BME280;49208;50.874;6.466;2023-08-21T11:51:56;101139.09;;;29.89;55.80
63115;BME280;49208;50.874;6.466;2023-08-21T11:54:21;101144.66;;;30.05;51.72
63115;BME280;49208;50.874;6.466;2023-08-21T11:56:47;101141.16;;;29.95;52.16
63115;BME280;49208;50.874;6.466;2023-08-21T11:59:21;101136.28;;;29.80;51.63
63115;BME280;49208;50.874;6.466;2023-08-21T12:01:50;101132.13;;;29.50;50.34
63115;BME280;49208;50.874;6.466;2023-08-21T12:04:15;101129.88;;;29.46;53.30
63115;BME280;49208;50.874;6.466;2023-08-21T12:06:45;101137.56;;;29.42;52.95
63115;BME280;49208;50.874;6.466;2023-08-21T12:09:10;101130.03;;;29.44;52.85
63115;BME280;49208;50.874;6.466;2023-08-21T12:11:36;101129.72;;;29.47;50.75
63115;BME280;49208;50.874;6.466;2023-08-21T12:14:03;101125.25;;;29.46;48.87
63115;BME280;49208;50.874;6.466;2023-08-21T12:16:29;101127.13;;;29.46;51.13
63115;BME280;49208;50.874;6.466;2023-08-21T12:18:54;101130.22;;;29.51;47.91
63115;BME280;49208;50.874;6.466;2023-08-21T12:21:23;101123.91;;;29.50;48.21
63115;BME280;49208;50.874;6.466;2023-08-21T12:23:48;101117.56;;;29.50;50.99
63115;BME280;49208;50.874;6.466;2023-08-21T12:26:13;101111.44;;;29.56;47.50
63115;BME280;49208;50.874;6.466;2023-08-21T12:28:46;101116.22;;;29.54;49.75
63115;BME280;49208;50.874;6.466;2023-08-21T12:31:11;101116.06;;;29.55;50.14
63115;BME280;49208;50.874;6.466;2023-08-21T12:33:36;101118.41;;;29.50;48.33
63115;BME280;49208;50.874;6.466;2023-08-21T12:36:02;101111.22;;;29.49;50.66
63115;BME280;49208;50.874;6.466;2023-08-21T12:38:28;101109.00;;;29.53;47.71
63115;BME280;49208;50.874;6.466;2023-08-21T12:40:54;101108.19;;;29.34;46.93
63115;BME280;49208;50.874;6.466;2023-08-21T12:43:20;101108.41;;;29.41;49.52
63115;BME280;49208;50.874;6.466;2023-08-21T12:45:46;101102.44;;;29.46;46.51
63115;BME280;49208;50.874;6.466;2023-08-21T12:48:12;101107.94;;;29.46;49.76
63115;BME280;49208;50.874;6.466;2023-08-21T12:50:38;101104.00;;;29.48;48.90
63115;BME280;49208;50.874;6.466;2023-08-21T12:53:03;101110.03;;;29.52;49.45
63115;BME280;49208;50.874;6.466;2023-08-21T12:55:28;101104.19;;;29.55;48.19
63115;BME280;49208;50.874;6.466;2023-08-21T12:57:55;101115.19;;;29.55;48.23
63115;BME280;49208;50.874;6.466;2023-08-21T13:00:21;101116.06;;;29.55;48.59
63115;BME280;49208;50.874;6.466;2023-08-21T13:02:46;101105.03;;;29.47;48.06
63115;BME280;49208;50.874;6.466;2023-08-21T13:05:12;101109.06;;;29.35;46.85
63115;BME280;49208;50.874;6.466;2023-08-21T13:07:37;101108.59;;;29.21;47.59
63115;BME280;49208;50.874;6.466;2023-08-21T13:10:03;101105.91;;;29.04;48.18
63115;BME280;49208;50.874;6.466;2023-08-21T13:12:28;101111.38;;;28.86;48.39
63115;BME280;49208;50.874;6.466;2023-08-21T13:14:53;101113.09;;;28.51;47.78
63115;BME280;49208;50.874;6.466;2023-08-21T13:17:19;101106.09;;;28.20;48.77
63115;BME280;49208;50.874;6.466;2023-08-21T13:19:45;101105.63;;;27.97;49.73
63115;BME280;49208;50.874;6.466;2023-08-21T13:22:10;101098.31;;;27.78;50.79
63115;BME280;49208;50.874;6.466;2023-08-21T13:24:36;101102.25;;;27.66;50.62
63115;BME280;49208;50.874;6.466;2023-08-21T13:27:01;101096.59;;;27.50;50.76
63115;BME280;49208;50.874;6.466;2023-08-21T13:29:26;101090.56;;;27.46;50.58
63115;BME280;49208;50.874;6.466;2023-08-21T13:31:52;101097.72;;;27.57;49.96
63115;BME280;49208;50.874;6.466;2023-08-21T13:34:17;101102.66;;;27.81;50.20
63115;BME280;49208;50.874;6.466;2023-08-21T13:36:42;101102.00;;;27.97;49.13
63115;BME280;49208;50.874;6.466;2023-08-21T13:39:08;101096.66;;;28.05;48.16
63115;BME280;49208;50.874;6.466;2023-08-21T13:41:36;101098.88;;;28.19;48.22
63115;BME280;49208;50.874;6.466;2023-08-21T13:44:01;101093.34;;;28.29;48.10
63115;BME280;49208;50.874;6.466;2023-08-21T13:46:26;101083.81;;;28.33;48.13
63115;BME280;49208;50.874;6.466;2023-08-21T13:48:52;101076.53;;;28.42;47.44
63115;BME280;49208;50.874;6.466;2023-08-21T13:51:17;101078.25;;;28.43;47.85
63115;BME280;49208;50.874;6.466;2023-08-21T13:53:43;101079.41;;;28.40;47.59
63115;BME280;49208;50.874;6.466;2023-08-21T13:56:08;101077.94;;;28.46;49.04
63115;BME280;49208;50.874;6.466;2023-08-21T13:58:34;101077.78;;;28.48;49.11
63115;BME280;49208;50.874;6.466;2023-08-21T14:00:59;101071.44;;;28.47;49.93
63115;BME280;49208;50.874;6.466;2023-08-21T14:03:24;101067.94;;;28.55;47.18
63115;BME280;49208;50.874;6.466;2023-08-21T14:05:50;101071.81;;;28.62;45.84
63115;BME280;49208;50.874;6.466;2023-08-21T14:08:15;101068.03;;;28.63;46.74
63115;BME280;49208;50.874;6.466;2023-08-21T14:10:41;101067.03;;;28.64;46.85
63115;BME280;49208;50.874;6.466;2023-08-21T14:13:06;101056.44;;;28.69;47.34
63115;BME280;49208;50.874;6.466;2023-08-21T14:15:33;101063.09;;;28.85;46.10
63115;BME280;49208;50.874;6.466;2023-08-21T14:17:58;101059.47;;;28.84;45.20
63115;BME280;49208;50.874;6.466;2023-08-21T14:20:24;101059.88;;;28.89;45.64
63115;BME280;49208;50.874;6.466;2023-08-21T14:22:49;101059.75;;;28.99;46.84
63115;BME280;49208;50.874;6.466;2023-08-21T14:25:14;101055.59;;;29.13;46.54
63115;BME280;49208;50.874;6.466;2023-08-21T14:27:44;101061.00;;;29.23;47.01
63115;BME280;49208;50.874;6.466;2023-08-21T14:30:09;101053.13;;;29.28;47.23
63115;BME280;49208;50.874;6.466;2023-08-21T14:32:35;101052.31;;;29.35;45.41
63115;BME280;49208;50.874;6.466;2023-08-21T14:35:02;101050.63;;;29.42;45.09
63115;BME280;49208;50.874;6.466;2023-08-21T14:37:29;101043.03;;;29.28;42.90
63115;BME280;49208;50.874;6.466;2023-08-21T14:39:54;101051.22;;;29.20;46.02
63115;BME280;49208;50.874;6.466;2023-08-21T14:42:20;101042.19;;;29.10;45.71
63115;BME280;49208;50.874;6.466;2023-08-21T14:44:45;101040.81;;;29.06;45.44
63115;BME280;49208;50.874;6.466;2023-08-21T14:47:10;101050.38;;;29.01;47.19
63115;BME280;49208;50.874;6.466;2023-08-21T14:49:36;101049.13;;;28.78;48.17
63115;BME280;49208;50.874;6.466;2023-08-21T14:52:02;101046.38;;;28.52;47.62
63115;BME280;49208;50.874;6.466;2023-08-21T14:54:28;101050.25;;;28.31;48.34
63115;BME280;49208;50.874;6.466;2023-08-21T14:56:53;101035.44;;;28.06;46.97
63115;BME280;49208;50.874;6.466;2023-08-21T14:59:19;101041.91;;;27.77;48.48
63115;BME280;49208;50.874;6.466;2023-08-21T15:01:44;101048.72;;;27.64;48.73
63115;BME280;49208;50.874;6.466;2023-08-21T15:04:09;101036.97;;;27.53;49.17
63115;BME280;49208;50.874;6.466;2023-08-21T15:06:37;101031.81;;;27.50;48.60
63115;BME280;49208;50.874;6.466;2023-08-21T15:09:02;101024.78;;;27.48;49.06
63115;BME280;49208;50.874;6.466;2023-08-21T15:11:27;101027.91;;;27.53;49.66
63115;BME280;49208;50.874;6.466;2023-08-21T15:13:53;101024.09;;;27.64;52.42
63115;BME280;49208;50.874;6.466;2023-08-21T15:16:18;101012.28;;;27.73;52.30
63115;BME280;49208;50.874;6.466;2023-08-21T15:18:44;101013.22;;;27.81;50.66
63115;BME280;49208;50.874;6.466;2023-08-21T15:21:11;101008.16;;;27.87;50.43
63115;BME280;49208;50.874;6.466;2023-08-21T15:23:37;101010.16;;;27.85;51.53
63115;BME280;49208;50.874;6.466;2023-08-21T15:26:02;101009.28;;;27.94;48.62
63115;BME280;49208;50.874;6.466;2023-08-21T15:28:27;101012.03;;;27.94;50.32
63115;BME280;49208;50.874;6.466;2023-08-21T15:30:53;101010.16;;;27.94;48.60
63115;BME280;49208;50.874;6.466;2023-08-21T15:33:18;101010.28;;;27.93;49.16
63115;BME280;49208;50.874;6.466;2023-08-21T15:35:44;100999.81;;;27.88;49.54
63115;BME280;49208;50.874;6.466;2023-08-21T15:38:09;101008.88;;;27.89;49.92
63115;BME280;49208;50.874;6.466;2023-08-21T15:40:35;101005.28;;;27.88;49.47
63115;BME280;49208;50.874;6.466;2023-08-21T15:43:02;101001.25;;;27.82;51.45
63115;BME280;49208;50.874;6.466;2023-08-21T15:45:29;101002.91;;;27.75;50.80
63115;BME280;49208;50.874;6.466;2023-08-21T15:47:55;101004.78;;;27.75;51.03
63115;BME280;49208;50.874;6.466;2023-08-21T15:50:20;101011.94;;;27.76;51.70
63115;BME280;49208;50.874;6.466;2023-08-21T15:52:47;101002.31;;;27.72;49.42
63115;BME280;49208;50.874;6.466;2023-08-21T15:55:13;100993.72;;;27.67;51.11
63115;BME280;49208;50.874;6.466;2023-08-21T15:57:39;100996.50;;;27.57;49.94
63115;BME280;49208;50.874;6.466;2023-08-21T16:00:05;101000.72;;;27.51;49.87
63115;BME280;49208;50.874;6.466;2023-08-21T16:02:31;100993.53;;;27.50;51.11
63115;BME280;49208;50.874;6.466;2023-08-21T16:04:56;100989.84;;;27.41;50.90
63115;BME280;49208;50.874;6.466;2023-08-21T16:07:21;100983.09;;;27.36;51.42
63115;BME280;49208;50.874;6.466;2023-08-21T16:09:47;100992.72;;;27.40;50.00
63115;BME280;49208;50.874;6.466;2023-08-21T16:12:12;100991.69;;;27.41;50.16
63115;BME280;49208;50.874;6.466;2023-08-21T16:14:38;100989.56;;;27.35;50.05
63115;BME280;49208;50.874;6.466;2023-08-21T16:17:03;100988.44;;;27.28;50.06
63115;BME280;49208;50.874;6.466;2023-08-21T16:19:33;100985.28;;;27.23;50.56
63115;BME280;49208;50.874;6.466;2023-08-21T16:21:58;100983.56;;;27.12;52.44
63115;BME280;49208;50.874;6.466;2023-08-21T16:24:24;100979.28;;;27.09;52.56
63115;BME280;49208;50.874;6.466;2023-08-21T16:26:49;100979.59;;;27.06;52.89
63115;BME280;49208;50.874;6.466;2023-08-21T16:29:15;100977.28;;;27.01;52.49
63115;BME280;49208;50.874;6.466;2023-08-21T16:31:42;100981.19;;;26.99;52.38
63115;BME280;49208;50.874;6.466;2023-08-21T16:34:09;100975.72;;;26.89;51.62
63115;BME280;49208;50.874;6.466;2023-08-21T16:36:34;100969.16;;;26.82;52.11
63115;BME280;49208;50.874;6.466;2023-08-21T16:39:00;100975.34;;;26.74;52.50
63115;BME280;49208;50.874;6.466;2023-08-21T16:41:25;100977.38;;;26.63;52.46
63115;BME280;49208;50.874;6.466;2023-08-21T16:43:50;100975.22;;;26.56;52.12
63115;BME280;49208;50.874;6.466;2023-08-21T16:46:16;100969.44;;;26.50;53.20
63115;BME280;49208;50.874;6.466;2023-08-21T16:48:41;100963.25;;;26.48;53.84
63115;BME280;49208;50.874;6.466;2023-08-21T16:51:07;100966.75;;;26.40;52.62
63115;BME280;49208;50.874;6.466;2023-08-21T16:53:32;100966.16;;;26.27;52.87
63115;BME280;49208;50.874;6.466;2023-08-21T16:55:57;100963.88;;;26.22;53.12
63115;BME280;49208;50.874;6.466;2023-08-21T16:58:23;100960.56;;;26.18;53.31
63115;BME280;49208;50.874;6.466;2023-08-21T17:00:48;100954.53;;;26.15;54.53
63115;BME280;49208;50.874;6.466;2023-08-21T17:03:14;100952.38;;;26.09;54.24
63115;BME280;49208;50.874;6.466;2023-08-21T17:05:39;100950.94;;;26.05;54.05
63115;BME280;49208;50.874;6.466;2023-08-21T17:08:05;100948.47;;;25.92;53.66
63115;BME280;49208;50.874;6.466;2023-08-21T17:10:30;100942.28;;;25.90;54.52
63115;BME280;49208;50.874;6.466;2023-08-21T17:12:55;100948.03;;;25.87;54.56
63115;BME280;49208;50.874;6.466;2023-08-21T17:15:21;100947.72;;;25.80;55.00
63115;BME280;49208;50.874;6.466;2023-08-21T17:17:46;100948.56;;;25.71;55.10
63115;BME280;49208;50.874;6.466;2023-08-21T17:20:12;100950.84;;;25.66;54.82
63115;BME280;49208;50.874;6.466;2023-08-21T17:22:37;100947.97;;;25.57;55.52
63115;BME280;49208;50.874;6.466;2023-08-21T17:25:03;100951.50;;;25.48;55.58
63115;BME280;49208;50.874;6.466;2023-08-21T17:27:28;100954.94;;;25.40;55.97
63115;BME280;49208;50.874;6.466;2023-08-21T17:29:54;100952.91;;;25.33;56.24
63115;BME280;49208;50.874;6.466;2023-08-21T17:32:20;100948.00;;;25.27;56.65
63115;BME280;49208;50.874;6.466;2023-08-21T17:34:45;100954.09;;;25.19;56.87
63115;BME280;49208;50.874;6.466;2023-08-21T17:37:10;100952.66;;;25.15;57.11
63115;BME280;49208;50.874;6.466;2023-08-21T17:39:37;100964.09;;;25.09;57.35
63115;BME280;49208;50.874;6.466;2023-08-21T17:42:03;100953.00;;;25.00;57.67
63115;BME280;49208;50.874;6.466;2023-08-21T17:44:29;100957.28;;;24.93;58.21
63115;BME280;49208;50.874;6.466;2023-08-21T17:46:54;100947.94;;;24.86;57.42
63115;BME280;49208;50.874;6.466;2023-08-21T17:49:20;100959.50;;;24.78;57.90
63115;BME280;49208;50.874;6.466;2023-08-21T17:51:45;100962.03;;;24.70;58.33
63115;BME280;49208;50.874;6.466;2023-08-21T17:54:11;100965.41;;;24.63;58.22
63115;BME280;49208;50.874;6.466;2023-08-21T17:56:36;100965.94;;;24.56;58.55
63115;BME280;49208;50.874;6.466;2023-08-21T17:59:02;100954.81;;;24.48;58.89
63115;BME280;49208;50.874;6.466;2023-08-21T18:01:28;100957.34;;;24.40;59.23
63115;BME280;49208;50.874;6.466;2023-08-21T18:03:54;100954.41;;;24.32;59.83
63115;BME280;49208;50.874;6.466;2023-08-21T18:06:19;100956.81;;;24.25;60.26
63115;BME280;49208;50.874;6.466;2023-08-21T18:08:47;100951.03;;;24.18;60.30
63115;BME280;49208;50.874;6.466;2023-08-21T18:11:13;100955.97;;;24.13;60.56
63115;BME280;49208;50.874;6.466;2023-08-21T18:13:38;100962.94;;;24.06;60.93
63115;BME280;49208;50.874;6.466;2023-08-21T18:16:03;100957.16;;;23.99;60.99
63115;BME280;49208;50.874;6.466;2023-08-21T18:18:29;100963.34;;;23.90;61.56
63115;BME280;49208;50.874;6.466;2023-08-21T18:20:58;100963.13;;;23.82;61.43
63115;BME280;49208;50.874;6.466;2023-08-21T18:23:26;100967.34;;;23.75;61.67
63115;BME280;49208;50.874;6.466;2023-08-21T18:25:53;100972.53;;;23.67;62.05
63115;BME280;49208;50.874;6.466;2023-08-21T18:28:19;100964.41;;;23.55;62.91
63115;BME280;49208;50.874;6.466;2023-08-21T18:30:54;100963.44;;;23.45;62.47
63115;BME280;49208;50.874;6.466;2023-08-21T18:33:21;100971.19;;;23.38;63.10
63115;BME280;49208;50.874;6.466;2023-08-21T18:35:47;100965.91;;;23.26;64.69
63115;BME280;49208;50.874;6.466;2023-08-21T18:38:13;100959.00;;;23.10;65.39
63115;BME280;49208;50.874;6.466;2023-08-21T18:40:38;100971.78;;;22.97;66.41
63115;BME280;49208;50.874;6.466;2023-08-21T18:43:04;100970.41;;;22.80;68.69
63115;BME280;49208;50.874;6.466;2023-08-21T18:45:29;100969.28;;;22.60;69.87
63115;BME280;49208;50.874;6.466;2023-08-21T18:47:55;100966.25;;;22.40;69.73
63115;BME280;49208;50.874;6.466;2023-08-21T18:50:38;100970.47;;;22.20;69.88
63115;BME280;49208;50.874;6.466;2023-08-21T18:53:06;100965.34;;;22.05;70.72
63115;BME280;49208;50.874;6.466;2023-08-21T18:55:34;100965.59;;;21.89;73.38
63115;BME280;49208;50.874;6.466;2023-08-21T18:58:00;100967.63;;;21.74;73.45